sensor_id;sensor_type;location;lat;lon;timestamp;temperature;humidity
11772;DHT22;12556;55.748;13.194;2023-02-01T00:02:03;4.30;99.90
11772;DHT22;12556;55.748;13.194;2023-02-01T00:04:30;4.20;99.90
11772;DHT22;12556;55.748;13.194;2023-02-01T00:06:57;4.30;99.90
11772;DHT22;12556;55.748;13.194;2023-02-01T00:09:25;4.30;99.90
11772;DHT22;12556;55.748;13.194;2023-02-01T00:11:52;4.30;99.90
11772;DHT22;12556;55.748;13.194;2023-02-01T00:14:19;4.30;99.90
11772;DHT22;12556;55.748;13.194;2023-02-01T00:16:49;4.30;99.90
11772;DHT22;12556;55.748;13.194;2023-02-01T00:19:16;4.30;99.90
11772;DHT22;12556;55.748;13.194;2023-02-01T00:21:44;4.30;99.90
11772;DHT22;12556;55.748;13.194;2023-02-01T00:24:11;4.30;99.90
11772;DHT22;12556;55.748;13.194;2023-02-01T00:26:41;4.30;99.90
11772;DHT22;12556;55.748;13.194;2023-02-01T00:29:11;4.30;99.90
11772;DHT22;12556;55.748;13.194;2023-02-01T00:31:38;4.30;99.90
11772;DHT22;12556;55.748;13.194;2023-02-01T00:34:05;4.30;99.90
11772;DHT22;12556;55.748;13.194;2023-02-01T00:36:32;4.30;99.90
11772;DHT22;12556;55.748;13.194;2023-02-01T00:39:00;4.30;99.90
11772;DHT22;12556;55.748;13.194;2023-02-01T00:41:26;4.20;99.90
11772;DHT22;12556;55.748;13.194;2023-02-01T00:43:55;4.20;99.90
11772;DHT22;12556;55.748;13.194;2023-02-01T00:46:22;4.20;99.90
11772;DHT22;12556;55.748;13.194;2023-02-01T00:48:49;4.20;99.90
11772;DHT22;12556;55.748;13.194;2023-02-01T00:51:18;4.20;99.90
11772;DHT22;12556;55.748;13.194;2023-02-01T00:53:45;4.20;99.90
11772;DHT22;12556;55.748;13.194;2023-02-01T00:56:12;4.20;99.90
11772;DHT22;12556;55.748;13.194;2023-02-01T00:58:40;4.20;99.90
11772;DHT22;12556;55.748;13.194;2023-02-01T01:01:10;4.20;99.90
11772;DHT22;12556;55.748;13.194;2023-02-01T01:03:39;4.20;99.90
11772;DHT22;12556;55.748;13.194;2023-02-01T01:06:09;4.20;99.90
11772;DHT22;12556;55.748;13.194;2023-02-01T01:08:37;4.20;99.90
11772;DHT22;12556;55.748;13.194;2023-02-01T01:11:05;4.20;99.90
11772;DHT22;12556;55.748;13.194;2023-02-01T01:13:33;4.20;99.90
11772;DHT22;12556;55.748;13.194;2023-02-01T01:16:03;4.20;99.90
11772;DHT22;12556;55.748;13.194;2023-02-01T01:18:32;4.20;99.90
11772;DHT22;12556;55.748;13.194;2023-02-01T01:20:59;4.20;99.90
11772;DHT22;12556;55.748;13.194;2023-02-01T01:23:27;4.30;99.90
11772;DHT22;12556;55.748;13.194;2023-02-01T01:25:54;4.30;99.90
11772;DHT22;12556;55.748;13.194;2023-02-01T01:28:21;4.30;99.90
11772;DHT22;12556;55.748;13.194;2023-02-01T01:30:48;4.30;99.90
11772;DHT22;12556;55.748;13.194;2023-02-01T01:33:15;4.30;99.90
11772;DHT22;12556;55.748;13.194;2023-02-01T01:35:43;4.40;99.90
11772;DHT22;12556;55.748;13.194;2023-02-01T01:38:10;4.30;99.90
11772;DHT22;12556;55.748;13.194;2023-02-01T01:40:37;4.30;99.90
11772;DHT22;12556;55.748;13.194;2023-02-01T01:43:13;4.40;99.90
11772;DHT22;12556;55.748;13.194;2023-02-01T01:45:41;4.30;99.90
11772;DHT22;12556;55.748;13.194;2023-02-01T01:48:12;4.30;99.90
11772;DHT22;12556;55.748;13.194;2023-02-01T01:50:44;4.30;99.90
11772;DHT22;12556;55.748;13.194;2023-02-01T01:53:18;4.40;99.90
11772;DHT22;12556;55.748;13.194;2023-02-01T01:55:47;4.40;99.90
11772;DHT22;12556;55.748;13.194;2023-02-01T01:58:18;4.40;99.90
11772;DHT22;12556;55.748;13.194;2023-02-01T02:00:46;4.40;99.90
11772;DHT22;12556;55.748;13.194;2023-02-01T02:03:17;4.40;99.90
11772;DHT22;12556;55.748;13.194;2023-02-01T02:05:46;4.40;99.90
11772;DHT22;12556;55.748;13.194;2023-02-01T02:08:15;4.40;99.90
11772;DHT22;12556;55.748;13.194;2023-02-01T02:10:43;4.40;99.90
11772;DHT22;12556;55.748;13.194;2023-02-01T02:13:32;4.40;99.90
11772;DHT22;12556;55.748;13.194;2023-02-01T02:18:59;4.40;99.90
11772;DHT22;12556;55.748;13.194;2023-02-01T02:21:48;4.40;99.90
11772;DHT22;12556;55.748;13.194;2023-02-01T02:27:23;4.50;99.90
11772;DHT22;12556;55.748;13.194;2023-02-01T02:30:29;4.50;99.90
11772;DHT22;12556;55.748;13.194;2023-02-01T02:36:08;4.50;99.90
11772;DHT22;12556;55.748;13.194;2023-02-01T02:38:41;4.50;99.90
11772;DHT22;12556;55.748;13.194;2023-02-01T02:41:15;4.50;99.90
11772;DHT22;12556;55.748;13.194;2023-02-01T02:44:09;4.60;99.90
11772;DHT22;12556;55.748;13.194;2023-02-01T02:46:59;4.60;99.90
11772;DHT22;12556;55.748;13.194;2023-02-01T02:49:51;4.60;99.90
11772;DHT22;12556;55.748;13.194;2023-02-01T02:52:36;4.70;99.90
11772;DHT22;12556;55.748;13.194;2023-02-01T02:55:23;4.70;99.90
11772;DHT22;12556;55.748;13.194;2023-02-01T02:57:51;4.70;99.90
11772;DHT22;12556;55.748;13.194;2023-02-01T03:00:35;4.70;99.90
11772;DHT22;12556;55.748;13.194;2023-02-01T03:03:20;4.70;99.90
11772;DHT22;12556;55.748;13.194;2023-02-01T03:06:11;4.70;99.90
11772;DHT22;12556;55.748;13.194;2023-02-01T03:08:41;4.70;99.90
11772;DHT22;12556;55.748;13.194;2023-02-01T03:11:12;4.60;99.90
11772;DHT22;12556;55.748;13.194;2023-02-01T03:13:45;4.60;99.90
11772;DHT22;12556;55.748;13.194;2023-02-01T03:16:14;4.60;99.90
11772;DHT22;12556;55.748;13.194;2023-02-01T03:18:48;4.60;99.90
11772;DHT22;12556;55.748;13.194;2023-02-01T03:21:21;4.60;99.90
11772;DHT22;12556;55.748;13.194;2023-02-01T03:23:54;4.50;99.90
11772;DHT22;12556;55.748;13.194;2023-02-01T03:26:25;4.50;99.90
11772;DHT22;12556;55.748;13.194;2023-02-01T03:28:57;4.50;99.90
11772;DHT22;12556;55.748;13.194;2023-02-01T03:31:27;4.50;99.90
11772;DHT22;12556;55.748;13.194;2023-02-01T03:33:55;4.50;99.90
11772;DHT22;12556;55.748;13.194;2023-02-01T03:36:26;4.50;99.90
11772;DHT22;12556;55.748;13.194;2023-02-01T03:39:02;4.50;99.90
11772;DHT22;12556;55.748;13.194;2023-02-01T03:41:35;4.50;99.90
11772;DHT22;12556;55.748;13.194;2023-02-01T03:44:11;4.50;99.90
11772;DHT22;12556;55.748;13.194;2023-02-01T03:46:43;4.40;99.90
11772;DHT22;12556;55.748;13.194;2023-02-01T03:49:14;4.50;99.90
11772;DHT22;12556;55.748;13.194;2023-02-01T03:51:43;4.40;99.90
11772;DHT22;12556;55.748;13.194;2023-02-01T03:54:13;4.50;99.90
11772;DHT22;12556;55.748;13.194;2023-02-01T03:56:43;4.40;99.90
11772;DHT22;12556;55.748;13.194;2023-02-01T03:59:11;4.50;99.90
11772;DHT22;12556;55.748;13.194;2023-02-01T04:01:38;4.50;99.90
11772;DHT22;12556;55.748;13.194;2023-02-01T04:04:06;4.40;99.90
11772;DHT22;12556;55.748;13.194;2023-02-01T04:06:35;4.40;99.90
11772;DHT22;12556;55.748;13.194;2023-02-01T04:09:02;4.40;99.90
11772;DHT22;12556;55.748;13.194;2023-02-01T04:11:30;4.40;99.90
11772;DHT22;12556;55.748;13.194;2023-02-01T04:13:57;4.40;99.90
11772;DHT22;12556;55.748;13.194;2023-02-01T04:16:29;4.40;99.90
11772;DHT22;12556;55.748;13.194;2023-02-01T04:18:56;4.40;99.90
11772;DHT22;12556;55.748;13.194;2023-02-01T04:21:24;4.40;99.90
11772;DHT22;12556;55.748;13.194;2023-02-01T04:23:51;4.40;99.90
11772;DHT22;12556;55.748;13.194;2023-02-01T04:26:18;4.40;99.90
11772;DHT22;12556;55.748;13.194;2023-02-01T04:28:47;4.40;99.90
11772;DHT22;12556;55.748;13.194;2023-02-01T04:31:14;4.40;99.90
11772;DHT22;12556;55.748;13.194;2023-02-01T04:33:41;4.40;99.90
11772;DHT22;12556;55.748;13.194;2023-02-01T04:36:09;4.40;99.90
11772;DHT22;12556;55.748;13.194;2023-02-01T04:38:36;4.40;99.90
11772;DHT22;12556;55.748;13.194;2023-02-01T04:41:03;4.40;99.90
11772;DHT22;12556;55.748;13.194;2023-02-01T04:43:30;4.40;99.90
11772;DHT22;12556;55.748;13.194;2023-02-01T04:45:58;4.40;99.90
11772;DHT22;12556;55.748;13.194;2023-02-01T04:48:25;4.40;99.90
11772;DHT22;12556;55.748;13.194;2023-02-01T04:50:53;4.40;99.90
11772;DHT22;12556;55.748;13.194;2023-02-01T04:53:20;4.40;99.90
11772;DHT22;12556;55.748;13.194;2023-02-01T04:55:48;4.40;99.90
11772;DHT22;12556;55.748;13.194;2023-02-01T04:58:15;4.40;99.90
11772;DHT22;12556;55.748;13.194;2023-02-01T05:00:42;4.40;99.90
11772;DHT22;12556;55.748;13.194;2023-02-01T05:03:10;4.40;99.90
11772;DHT22;12556;55.748;13.194;2023-02-01T05:05:37;4.40;99.90
11772;DHT22;12556;55.748;13.194;2023-02-01T05:08:04;4.40;99.90
11772;DHT22;12556;55.748;13.194;2023-02-01T05:10:31;4.40;99.90
11772;DHT22;12556;55.748;13.194;2023-02-01T05:12:57;4.40;99.90
11772;DHT22;12556;55.748;13.194;2023-02-01T05:15:42;4.30;99.90
11772;DHT22;12556;55.748;13.194;2023-02-01T05:18:10;4.30;99.90
11772;DHT22;12556;55.748;13.194;2023-02-01T05:20:37;4.30;99.90
11772;DHT22;12556;55.748;13.194;2023-02-01T05:23:04;4.20;99.90
11772;DHT22;12556;55.748;13.194;2023-02-01T05:25:31;4.20;99.90
11772;DHT22;12556;55.748;13.194;2023-02-01T05:27:57;4.20;99.90
11772;DHT22;12556;55.748;13.194;2023-02-01T05:30:24;4.10;99.90
11772;DHT22;12556;55.748;13.194;2023-02-01T05:32:51;4.10;99.90
11772;DHT22;12556;55.748;13.194;2023-02-01T05:35:20;4.10;99.90
11772;DHT22;12556;55.748;13.194;2023-02-01T05:37:46;4.10;99.90
11772;DHT22;12556;55.748;13.194;2023-02-01T05:40:13;4.00;99.90
11772;DHT22;12556;55.748;13.194;2023-02-01T05:42:40;4.00;99.90
11772;DHT22;12556;55.748;13.194;2023-02-01T05:45:08;3.90;99.90
11772;DHT22;12556;55.748;13.194;2023-02-01T05:47:35;3.90;99.90
11772;DHT22;12556;55.748;13.194;2023-02-01T05:50:02;3.90;99.90
11772;DHT22;12556;55.748;13.194;2023-02-01T05:52:31;3.90;99.90
11772;DHT22;12556;55.748;13.194;2023-02-01T05:54:58;3.90;99.90
11772;DHT22;12556;55.748;13.194;2023-02-01T05:57:25;3.80;99.90
11772;DHT22;12556;55.748;13.194;2023-02-01T05:59:52;3.80;99.90
11772;DHT22;12556;55.748;13.194;2023-02-01T06:02:19;3.80;99.90
11772;DHT22;12556;55.748;13.194;2023-02-01T06:04:47;3.80;99.90
11772;DHT22;12556;55.748;13.194;2023-02-01T06:07:14;3.80;99.90
11772;DHT22;12556;55.748;13.194;2023-02-01T06:09:42;3.80;99.90
11772;DHT22;12556;55.748;13.194;2023-02-01T06:12:09;3.80;99.90
11772;DHT22;12556;55.748;13.194;2023-02-01T06:14:36;3.90;99.90
11772;DHT22;12556;55.748;13.194;2023-02-01T06:17:03;3.90;99.90
11772;DHT22;12556;55.748;13.194;2023-02-01T06:19:31;3.90;99.90
11772;DHT22;12556;55.748;13.194;2023-02-01T06:21:58;3.90;99.90
11772;DHT22;12556;55.748;13.194;2023-02-01T06:24:25;3.90;99.90
11772;DHT22;12556;55.748;13.194;2023-02-01T06:26:53;3.90;99.90
11772;DHT22;12556;55.748;13.194;2023-02-01T06:29:20;3.90;99.90
11772;DHT22;12556;55.748;13.194;2023-02-01T06:31:47;3.90;99.90
11772;DHT22;12556;55.748;13.194;2023-02-01T06:34:13;4.00;99.90
11772;DHT22;12556;55.748;13.194;2023-02-01T06:36:40;4.00;99.90
11772;DHT22;12556;55.748;13.194;2023-02-01T06:39:07;4.00;99.90
11772;DHT22;12556;55.748;13.194;2023-02-01T06:41:34;4.00;99.90
11772;DHT22;12556;55.748;13.194;2023-02-01T06:44:02;3.90;99.90
11772;DHT22;12556;55.748;13.194;2023-02-01T06:46:29;3.90;99.90
11772;DHT22;12556;55.748;13.194;2023-02-01T06:48:56;3.90;99.90
11772;DHT22;12556;55.748;13.194;2023-02-01T06:51:24;3.80;99.90
11772;DHT22;12556;55.748;13.194;2023-02-01T06:53:52;3.80;99.90
11772;DHT22;12556;55.748;13.194;2023-02-01T06:56:19;3.80;99.90
11772;DHT22;12556;55.748;13.194;2023-02-01T06:58:46;3.70;99.90
11772;DHT22;12556;55.748;13.194;2023-02-01T07:01:15;3.70;99.90
11772;DHT22;12556;55.748;13.194;2023-02-01T07:03:43;3.60;99.90
11772;DHT22;12556;55.748;13.194;2023-02-01T07:06:13;3.60;99.90
11772;DHT22;12556;55.748;13.194;2023-02-01T07:08:40;3.50;99.90
11772;DHT22;12556;55.748;13.194;2023-02-01T07:11:08;3.50;99.90
11772;DHT22;12556;55.748;13.194;2023-02-01T07:13:36;3.50;99.90
11772;DHT22;12556;55.748;13.194;2023-02-01T07:16:06;3.50;99.90
11772;DHT22;12556;55.748;13.194;2023-02-01T07:18:35;3.50;99.90
11772;DHT22;12556;55.748;13.194;2023-02-01T07:21:01;3.50;99.90
11772;DHT22;12556;55.748;13.194;2023-02-01T07:23:28;3.50;99.90
11772;DHT22;12556;55.748;13.194;2023-02-01T07:25:56;3.50;99.90
11772;DHT22;12556;55.748;13.194;2023-02-01T07:28:24;3.40;99.90
11772;DHT22;12556;55.748;13.194;2023-02-01T07:30:51;3.50;99.90
11772;DHT22;12556;55.748;13.194;2023-02-01T07:33:19;3.50;99.90
11772;DHT22;12556;55.748;13.194;2023-02-01T07:35:48;3.40;99.90
11772;DHT22;12556;55.748;13.194;2023-02-01T07:38:15;3.40;99.90
11772;DHT22;12556;55.748;13.194;2023-02-01T07:40:42;3.40;99.90
11772;DHT22;12556;55.748;13.194;2023-02-01T07:43:10;3.40;99.90
11772;DHT22;12556;55.748;13.194;2023-02-01T07:45:36;3.40;99.90
11772;DHT22;12556;55.748;13.194;2023-02-01T07:48:04;3.40;99.90
11772;DHT22;12556;55.748;13.194;2023-02-01T07:50:31;3.40;99.90
11772;DHT22;12556;55.748;13.194;2023-02-01T07:53:00;3.50;99.90
11772;DHT22;12556;55.748;13.194;2023-02-01T07:55:27;3.40;99.90
11772;DHT22;12556;55.748;13.194;2023-02-01T07:57:57;3.50;99.90
11772;DHT22;12556;55.748;13.194;2023-02-01T08:00:25;3.50;99.90
11772;DHT22;12556;55.748;13.194;2023-02-01T08:03:10;3.50;99.90
11772;DHT22;12556;55.748;13.194;2023-02-01T08:05:37;3.60;99.90
11772;DHT22;12556;55.748;13.194;2023-02-01T08:08:06;3.60;99.90
11772;DHT22;12556;55.748;13.194;2023-02-01T08:10:34;3.60;99.90
11772;DHT22;12556;55.748;13.194;2023-02-01T08:13:01;3.70;99.90
11772;DHT22;12556;55.748;13.194;2023-02-01T08:15:31;3.70;99.90
11772;DHT22;12556;55.748;13.194;2023-02-01T08:17:58;3.80;99.90
11772;DHT22;12556;55.748;13.194;2023-02-01T08:20:27;3.80;99.90
11772;DHT22;12556;55.748;13.194;2023-02-01T08:22:54;3.90;99.90
11772;DHT22;12556;55.748;13.194;2023-02-01T08:25:23;3.90;99.90
11772;DHT22;12556;55.748;13.194;2023-02-01T08:27:50;3.90;99.90
11772;DHT22;12556;55.748;13.194;2023-02-01T08:30:19;4.00;99.90
11772;DHT22;12556;55.748;13.194;2023-02-01T08:32:45;4.00;99.90
11772;DHT22;12556;55.748;13.194;2023-02-01T08:35:13;4.00;99.90
11772;DHT22;12556;55.748;13.194;2023-02-01T08:37:40;4.10;99.90
11772;DHT22;12556;55.748;13.194;2023-02-01T08:40:08;4.10;99.90
11772;DHT22;12556;55.748;13.194;2023-02-01T08:42:37;4.20;99.90
11772;DHT22;12556;55.748;13.194;2023-02-01T08:45:20;4.20;99.90
11772;DHT22;12556;55.748;13.194;2023-02-01T08:47:47;4.20;99.90
11772;DHT22;12556;55.748;13.194;2023-02-01T08:50:15;4.10;99.90
11772;DHT22;12556;55.748;13.194;2023-02-01T08:52:42;4.10;99.90
11772;DHT22;12556;55.748;13.194;2023-02-01T08:55:10;4.10;99.90
11772;DHT22;12556;55.748;13.194;2023-02-01T08:57:38;4.20;99.90
11772;DHT22;12556;55.748;13.194;2023-02-01T09:00:08;4.10;99.90
11772;DHT22;12556;55.748;13.194;2023-02-01T09:02:36;4.20;99.90
11772;DHT22;12556;55.748;13.194;2023-02-01T09:05:03;4.20;99.90
11772;DHT22;12556;55.748;13.194;2023-02-01T09:07:30;4.20;99.90
11772;DHT22;12556;55.748;13.194;2023-02-01T09:09:57;4.20;99.90
11772;DHT22;12556;55.748;13.194;2023-02-01T09:12:27;4.20;99.90
11772;DHT22;12556;55.748;13.194;2023-02-01T09:14:55;4.20;99.90
11772;DHT22;12556;55.748;13.194;2023-02-01T09:17:22;4.20;99.90
11772;DHT22;12556;55.748;13.194;2023-02-01T09:19:49;4.20;99.90
11772;DHT22;12556;55.748;13.194;2023-02-01T09:22:16;4.20;99.90
11772;DHT22;12556;55.748;13.194;2023-02-01T09:24:43;4.20;99.90
11772;DHT22;12556;55.748;13.194;2023-02-01T09:27:10;4.20;99.90
11772;DHT22;12556;55.748;13.194;2023-02-01T09:29:37;4.30;99.90
11772;DHT22;12556;55.748;13.194;2023-02-01T09:32:05;4.20;99.90
11772;DHT22;12556;55.748;13.194;2023-02-01T09:34:33;4.30;99.90
11772;DHT22;12556;55.748;13.194;2023-02-01T09:37:00;4.30;99.90
11772;DHT22;12556;55.748;13.194;2023-02-01T09:39:27;4.30;99.90
11772;DHT22;12556;55.748;13.194;2023-02-01T09:42:02;4.30;99.90
11772;DHT22;12556;55.748;13.194;2023-02-01T09:44:48;4.30;99.90
11772;DHT22;12556;55.748;13.194;2023-02-01T09:47:20;4.40;99.90
11772;DHT22;12556;55.748;13.194;2023-02-01T09:49:52;4.40;99.90
11772;DHT22;12556;55.748;13.194;2023-02-01T09:52:27;4.50;99.90
11772;DHT22;12556;55.748;13.194;2023-02-01T09:54:57;4.60;99.90
11772;DHT22;12556;55.748;13.194;2023-02-01T09:57:36;4.60;99.90
11772;DHT22;12556;55.748;13.194;2023-02-01T10:00:12;4.60;99.90
11772;DHT22;12556;55.748;13.194;2023-02-01T10:02:42;4.70;99.90
11772;DHT22;12556;55.748;13.194;2023-02-01T10:05:13;4.70;99.90
11772;DHT22;12556;55.748;13.194;2023-02-01T10:07:46;4.80;99.90
11772;DHT22;12556;55.748;13.194;2023-02-01T10:10:23;4.80;99.90
11772;DHT22;12556;55.748;13.194;2023-02-01T10:15:56;4.90;99.90
11772;DHT22;12556;55.748;13.194;2023-02-01T10:18:41;5.00;99.90
11772;DHT22;12556;55.748;13.194;2023-02-01T10:21:17;5.00;99.90
11772;DHT22;12556;55.748;13.194;2023-02-01T10:23:57;5.10;99.90
11772;DHT22;12556;55.748;13.194;2023-02-01T10:26:32;5.10;99.90
11772;DHT22;12556;55.748;13.194;2023-02-01T10:29:02;5.10;99.90
11772;DHT22;12556;55.748;13.194;2023-02-01T10:31:33;5.20;99.90
11772;DHT22;12556;55.748;13.194;2023-02-01T10:34:11;5.20;99.90
11772;DHT22;12556;55.748;13.194;2023-02-01T10:36:41;5.30;99.90
11772;DHT22;12556;55.748;13.194;2023-02-01T10:39:11;5.40;99.90
11772;DHT22;12556;55.748;13.194;2023-02-01T10:41:40;5.50;99.90
11772;DHT22;12556;55.748;13.194;2023-02-01T10:44:13;5.50;99.90
11772;DHT22;12556;55.748;13.194;2023-02-01T10:46:40;5.60;99.90
11772;DHT22;12556;55.748;13.194;2023-02-01T10:49:15;5.70;99.90
11772;DHT22;12556;55.748;13.194;2023-02-01T10:51:47;5.90;99.90
11772;DHT22;12556;55.748;13.194;2023-02-01T10:54:17;5.90;99.90
11772;DHT22;12556;55.748;13.194;2023-02-01T10:56:46;6.00;99.90
11772;DHT22;12556;55.748;13.194;2023-02-01T10:59:16;5.90;99.90
11772;DHT22;12556;55.748;13.194;2023-02-01T11:01:46;5.80;99.90
11772;DHT22;12556;55.748;13.194;2023-02-01T11:04:15;5.80;99.90
11772;DHT22;12556;55.748;13.194;2023-02-01T11:06:44;5.70;99.90
11772;DHT22;12556;55.748;13.194;2023-02-01T11:09:18;5.80;99.90
11772;DHT22;12556;55.748;13.194;2023-02-01T11:11:59;5.80;99.90
11772;DHT22;12556;55.748;13.194;2023-02-01T11:14:37;5.80;99.90
11772;DHT22;12556;55.748;13.194;2023-02-01T11:17:21;5.90;99.90
11772;DHT22;12556;55.748;13.194;2023-02-01T11:19:58;6.10;99.90
11772;DHT22;12556;55.748;13.194;2023-02-01T11:22:26;6.10;99.90
11772;DHT22;12556;55.748;13.194;2023-02-01T11:24:54;6.10;99.90
11772;DHT22;12556;55.748;13.194;2023-02-01T11:27:23;6.10;99.90
11772;DHT22;12556;55.748;13.194;2023-02-01T11:29:52;6.10;99.90
11772;DHT22;12556;55.748;13.194;2023-02-01T11:32:21;6.10;99.90
11772;DHT22;12556;55.748;13.194;2023-02-01T11:34:54;6.00;99.90
11772;DHT22;12556;55.748;13.194;2023-02-01T11:37:25;6.00;99.90
11772;DHT22;12556;55.748;13.194;2023-02-01T11:39:57;6.00;99.90
11772;DHT22;12556;55.748;13.194;2023-02-01T11:42:25;6.00;99.90
11772;DHT22;12556;55.748;13.194;2023-02-01T11:45:16;6.20;99.90
11772;DHT22;12556;55.748;13.194;2023-02-01T11:47:43;6.30;99.90
11772;DHT22;12556;55.748;13.194;2023-02-01T11:50:15;6.30;99.90
11772;DHT22;12556;55.748;13.194;2023-02-01T11:52:55;6.30;99.90
11772;DHT22;12556;55.748;13.194;2023-02-01T11:55:46;6.30;99.90
11772;DHT22;12556;55.748;13.194;2023-02-01T11:58:38;6.20;99.90
11772;DHT22;12556;55.748;13.194;2023-02-01T12:01:18;6.10;99.90
11772;DHT22;12556;55.748;13.194;2023-02-01T12:06:48;6.40;99.90
11772;DHT22;12556;55.748;13.194;2023-02-01T12:09:38;6.30;99.90
11772;DHT22;12556;55.748;13.194;2023-02-01T12:12:12;6.20;99.90
11772;DHT22;12556;55.748;13.194;2023-02-01T12:14:55;6.10;99.90
11772;DHT22;12556;55.748;13.194;2023-02-01T12:17:44;6.10;99.90
11772;DHT22;12556;55.748;13.194;2023-02-01T12:20:31;6.00;99.90
11772;DHT22;12556;55.748;13.194;2023-02-01T12:23:15;5.90;99.90
11772;DHT22;12556;55.748;13.194;2023-02-01T12:26:06;5.80;99.90
11772;DHT22;12556;55.748;13.194;2023-02-01T12:29:01;5.70;99.90
11772;DHT22;12556;55.748;13.194;2023-02-01T12:31:50;5.60;99.90
11772;DHT22;12556;55.748;13.194;2023-02-01T12:34:41;5.60;99.90
11772;DHT22;12556;55.748;13.194;2023-02-01T12:37:17;5.50;99.90
11772;DHT22;12556;55.748;13.194;2023-02-01T12:39:53;5.40;99.90
11772;DHT22;12556;55.748;13.194;2023-02-01T12:42:29;5.40;99.90
11772;DHT22;12556;55.748;13.194;2023-02-01T12:45:03;5.40;99.90
11772;DHT22;12556;55.748;13.194;2023-02-01T12:47:40;5.40;99.90
11772;DHT22;12556;55.748;13.194;2023-02-01T12:50:16;4.90;99.90
11772;DHT22;12556;55.748;13.194;2023-02-01T12:52:49;5.30;99.90
11772;DHT22;12556;55.748;13.194;2023-02-01T12:55:20;5.30;99.90
11772;DHT22;12556;55.748;13.194;2023-02-01T12:57:53;5.20;99.90
11772;DHT22;12556;55.748;13.194;2023-02-01T13:00:27;5.20;99.90
11772;DHT22;12556;55.748;13.194;2023-02-01T13:03:00;5.20;99.90
11772;DHT22;12556;55.748;13.194;2023-02-01T13:05:31;5.10;99.90
11772;DHT22;12556;55.748;13.194;2023-02-01T13:08:04;5.00;99.90
11772;DHT22;12556;55.748;13.194;2023-02-01T13:10:35;4.90;99.90
11772;DHT22;12556;55.748;13.194;2023-02-01T13:13:11;4.90;99.90
11772;DHT22;12556;55.748;13.194;2023-02-01T13:15:41;4.90;99.90
11772;DHT22;12556;55.748;13.194;2023-02-01T13:18:14;4.90;99.90
11772;DHT22;12556;55.748;13.194;2023-02-01T13:20:49;4.90;99.90
11772;DHT22;12556;55.748;13.194;2023-02-01T13:23:25;4.90;99.90
11772;DHT22;12556;55.748;13.194;2023-02-01T13:25:54;4.90;99.90
11772;DHT22;12556;55.748;13.194;2023-02-01T13:28:26;4.90;99.90
11772;DHT22;12556;55.748;13.194;2023-02-01T13:31:05;4.90;99.90
11772;DHT22;12556;55.748;13.194;2023-02-01T13:33:59;4.90;99.90
11772;DHT22;12556;55.748;13.194;2023-02-01T13:36:49;4.90;99.90
11772;DHT22;12556;55.748;13.194;2023-02-01T13:39:36;4.90;99.90
11772;DHT22;12556;55.748;13.194;2023-02-01T13:42:14;4.90;99.90
11772;DHT22;12556;55.748;13.194;2023-02-01T13:44:46;4.90;99.90
11772;DHT22;12556;55.748;13.194;2023-02-01T13:47:26;4.80;99.90
11772;DHT22;12556;55.748;13.194;2023-02-01T13:49:56;4.80;99.90
11772;DHT22;12556;55.748;13.194;2023-02-01T13:52:27;4.80;99.90
11772;DHT22;12556;55.748;13.194;2023-02-01T13:55:13;4.80;99.90
11772;DHT22;12556;55.748;13.194;2023-02-01T13:57:42;4.80;99.90
11772;DHT22;12556;55.748;13.194;2023-02-01T14:00:26;4.80;99.90
11772;DHT22;12556;55.748;13.194;2023-02-01T14:03:08;4.80;99.90
11772;DHT22;12556;55.748;13.194;2023-02-01T14:06:18;4.70;99.90
11772;DHT22;12556;55.748;13.194;2023-02-01T14:09:31;4.70;99.90
11772;DHT22;12556;55.748;13.194;2023-02-01T14:12:41;4.70;99.90
11772;DHT22;12556;55.748;13.194;2023-02-01T14:15:25;4.60;99.90
11772;DHT22;12556;55.748;13.194;2023-02-01T14:17:53;4.60;99.90
11772;DHT22;12556;55.748;13.194;2023-02-01T14:20:44;4.60;99.90
11772;DHT22;12556;55.748;13.194;2023-02-01T14:23:22;4.60;99.90
11772;DHT22;12556;55.748;13.194;2023-02-01T14:26:06;4.60;99.90
11772;DHT22;12556;55.748;13.194;2023-02-01T14:28:39;4.60;99.90
11772;DHT22;12556;55.748;13.194;2023-02-01T14:31:34;4.60;99.90
11772;DHT22;12556;55.748;13.194;2023-02-01T14:34:10;4.60;99.90
11772;DHT22;12556;55.748;13.194;2023-02-01T14:36:44;4.60;99.90
11772;DHT22;12556;55.748;13.194;2023-02-01T14:39:32;4.50;99.90
11772;DHT22;12556;55.748;13.194;2023-02-01T14:42:04;4.60;99.90
11772;DHT22;12556;55.748;13.194;2023-02-01T14:44:36;4.60;99.90
11772;DHT22;12556;55.748;13.194;2023-02-01T14:47:34;4.60;99.90
11772;DHT22;12556;55.748;13.194;2023-02-01T14:50:18;4.60;99.90
11772;DHT22;12556;55.748;13.194;2023-02-01T14:52:51;4.60;99.90
11772;DHT22;12556;55.748;13.194;2023-02-01T14:55:29;4.60;99.90
11772;DHT22;12556;55.748;13.194;2023-02-01T14:57:58;4.60;99.90
11772;DHT22;12556;55.748;13.194;2023-02-01T15:00:30;4.60;99.90
11772;DHT22;12556;55.748;13.194;2023-02-01T15:03:19;4.60;99.90
11772;DHT22;12556;55.748;13.194;2023-02-01T15:05:54;4.60;99.90
11772;DHT22;12556;55.748;13.194;2023-02-01T15:08:26;4.60;99.90
11772;DHT22;12556;55.748;13.194;2023-02-01T15:10:54;4.60;99.90
11772;DHT22;12556;55.748;13.194;2023-02-01T15:13:24;4.60;99.90
11772;DHT22;12556;55.748;13.194;2023-02-01T15:16:07;4.60;99.90
11772;DHT22;12556;55.748;13.194;2023-02-01T15:18:38;4.60;99.90
11772;DHT22;12556;55.748;13.194;2023-02-01T15:21:06;4.70;99.90
11772;DHT22;12556;55.748;13.194;2023-02-01T15:23:33;4.60;99.90
11772;DHT22;12556;55.748;13.194;2023-02-01T15:26:00;4.70;99.90
11772;DHT22;12556;55.748;13.194;2023-02-01T15:28:27;4.60;99.90
11772;DHT22;12556;55.748;13.194;2023-02-01T15:30:58;4.70;99.90
11772;DHT22;12556;55.748;13.194;2023-02-01T15:33:27;4.70;99.90
11772;DHT22;12556;55.748;13.194;2023-02-01T15:36:09;4.70;99.90
11772;DHT22;12556;55.748;13.194;2023-02-01T15:38:39;4.70;99.90
11772;DHT22;12556;55.748;13.194;2023-02-01T15:41:12;4.70;99.90
11772;DHT22;12556;55.748;13.194;2023-02-01T15:43:43;4.70;99.90
11772;DHT22;12556;55.748;13.194;2023-02-01T15:46:13;4.80;99.90
11772;DHT22;12556;55.748;13.194;2023-02-01T15:48:44;4.80;99.90
11772;DHT22;12556;55.748;13.194;2023-02-01T15:51:16;4.80;99.90
11772;DHT22;12556;55.748;13.194;2023-02-01T15:53:52;4.80;99.90
11772;DHT22;12556;55.748;13.194;2023-02-01T15:56:25;4.80;99.90
11772;DHT22;12556;55.748;13.194;2023-02-01T15:58:57;4.90;99.90
11772;DHT22;12556;55.748;13.194;2023-02-01T16:01:24;4.90;99.90
11772;DHT22;12556;55.748;13.194;2023-02-01T16:04:10;4.80;99.90
11772;DHT22;12556;55.748;13.194;2023-02-01T16:06:45;4.90;99.90
11772;DHT22;12556;55.748;13.194;2023-02-01T16:09:14;4.90;99.90
11772;DHT22;12556;55.748;13.194;2023-02-01T16:11:49;4.90;99.90
11772;DHT22;12556;55.748;13.194;2023-02-01T16:14:18;4.90;99.90
11772;DHT22;12556;55.748;13.194;2023-02-01T16:16:45;4.90;99.90